Terminal Aerodrome Forecast
Issued by NWS

Home | Current Version | Previous Version | Text Only | Print | Product List | Glossary On
Versions: 1 2 3 4 5 6 7 8 9 10 11 12 13 14 15 16 17 18 19 20 21
000
FTUS41 KGYX 031120
TAFRKD
TAF
KRKD 031120Z 0312/0412 23004KT 3SM BR OVC003
      TEMPO 0312/0313 3/4SM BR
     FM031300 17007KT P6SM SCT200
     FM040100 26003KT P6SM SCT200
     FM040500 VRB03KT 2SM BR BKN004
      AMD LTD TO CLD VIS AND WIND=

USA.gov is the U.S. government's official web portal to all federal, state and local government web resources and services.